Havana, Cuba
Current Conditions -  °F | °C
As of 11:55 PM on Tuesday 21 Oct 2014 (Local Time) from MUHA Reporting Station
Broken Clouds Broken Clouds  
Wind Chill: 22°   Ceiling: 15000
Heat Index: 22°   Visibility: 5mi
Dew Point: 19°   Wind: 6mph
Humidity: 83%   Direction: 80°E
Pressure: 29.94"   Gusts: NA
Location:  23.12°N, 82.39°W
Report Text: MUHA 220355Z 08005KT 050V110 8000 FEW025 BKN150 22/19 Q1014
Loading
Personal Weather Stations






























Interactive Weather Map New forecast layout! Learn more

10-Day Weather Forecast

Advertisements
Track Severe Weather on mobile